sensor_id;sensor_type;location;lat;lon;timestamp;temperature;humidity
7163;DHT22;3623;47.098;15.446;2023-08-12T00:00:12;15.20;99.90
7163;DHT22;3623;47.098;15.446;2023-08-12T00:02:40;15.10;99.90
7163;DHT22;3623;47.098;15.446;2023-08-12T00:05:08;15.10;99.90
7163;DHT22;3623;47.098;15.446;2023-08-12T00:07:36;15.10;99.90
7163;DHT22;3623;47.098;15.446;2023-08-12T00:10:05;15.00;99.90
7163;DHT22;3623;47.098;15.446;2023-08-12T00:12:32;14.90;99.90
7163;DHT22;3623;47.098;15.446;2023-08-12T00:15:01;14.90;99.90
7163;DHT22;3623;47.098;15.446;2023-08-12T00:17:29;14.80;99.90
7163;DHT22;3623;47.098;15.446;2023-08-12T00:19:56;14.80;99.90
7163;DHT22;3623;47.098;15.446;2023-08-12T00:22:23;14.80;99.90
7163;DHT22;3623;47.098;15.446;2023-08-12T00:24:51;14.80;99.90
7163;DHT22;3623;47.098;15.446;2023-08-12T00:27:18;14.80;99.90
7163;DHT22;3623;47.098;15.446;2023-08-12T00:29:45;14.80;99.90
7163;DHT22;3623;47.098;15.446;2023-08-12T00:32:13;14.80;99.90
7163;DHT22;3623;47.098;15.446;2023-08-12T00:34:40;14.70;99.90
7163;DHT22;3623;47.098;15.446;2023-08-12T00:37:07;14.80;99.90
7163;DHT22;3623;47.098;15.446;2023-08-12T00:39:34;14.70;99.90
7163;DHT22;3623;47.098;15.446;2023-08-12T00:42:01;14.70;99.90
7163;DHT22;3623;47.098;15.446;2023-08-12T00:44:28;14.60;99.90
7163;DHT22;3623;47.098;15.446;2023-08-12T00:46:55;14.60;99.90
7163;DHT22;3623;47.098;15.446;2023-08-12T00:49:24;14.60;99.90
7163;DHT22;3623;47.098;15.446;2023-08-12T00:51:52;14.60;99.90
7163;DHT22;3623;47.098;15.446;2023-08-12T00:54:21;14.60;99.90
7163;DHT22;3623;47.098;15.446;2023-08-12T00:56:48;14.60;99.90
7163;DHT22;3623;47.098;15.446;2023-08-12T00:59:17;14.60;99.90
7163;DHT22;3623;47.098;15.446;2023-08-12T01:01:44;14.60;99.90
7163;DHT22;3623;47.098;15.446;2023-08-12T01:04:11;14.60;99.90
7163;DHT22;3623;47.098;15.446;2023-08-12T01:06:40;14.50;99.90
7163;DHT22;3623;47.098;15.446;2023-08-12T01:09:07;14.50;99.90
7163;DHT22;3623;47.098;15.446;2023-08-12T01:11:38;14.50;99.90
7163;DHT22;3623;47.098;15.446;2023-08-12T01:14:11;14.50;99.90
7163;DHT22;3623;47.098;15.446;2023-08-12T01:16:43;14.60;99.90
7163;DHT22;3623;47.098;15.446;2023-08-12T01:19:20;14.50;99.90
7163;DHT22;3623;47.098;15.446;2023-08-12T01:21:53;14.50;99.90
7163;DHT22;3623;47.098;15.446;2023-08-12T01:24:25;14.50;99.90
7163;DHT22;3623;47.098;15.446;2023-08-12T01:26:52;14.50;99.90
7163;DHT22;3623;47.098;15.446;2023-08-12T01:29:21;14.40;99.90
7163;DHT22;3623;47.098;15.446;2023-08-12T01:31:51;14.40;99.90
7163;DHT22;3623;47.098;15.446;2023-08-12T01:34:25;14.30;99.90
7163;DHT22;3623;47.098;15.446;2023-08-12T01:36:55;14.30;99.90
7163;DHT22;3623;47.098;15.446;2023-08-12T01:39:26;14.20;99.90
7163;DHT22;3623;47.098;15.446;2023-08-12T01:41:54;14.20;99.90
7163;DHT22;3623;47.098;15.446;2023-08-12T01:44:21;14.40;99.90
7163;DHT22;3623;47.098;15.446;2023-08-12T01:46:49;14.10;99.90
7163;DHT22;3623;47.098;15.446;2023-08-12T01:49:16;14.10;99.90
7163;DHT22;3623;47.098;15.446;2023-08-12T01:51:43;14.10;99.90
7163;DHT22;3623;47.098;15.446;2023-08-12T01:54:10;14.10;99.90
7163;DHT22;3623;47.098;15.446;2023-08-12T01:56:38;14.00;99.90
7163;DHT22;3623;47.098;15.446;2023-08-12T01:59:05;14.00;99.90
7163;DHT22;3623;47.098;15.446;2023-08-12T02:01:32;14.00;99.90
7163;DHT22;3623;47.098;15.446;2023-08-12T02:03:59;14.00;99.90
7163;DHT22;3623;47.098;15.446;2023-08-12T02:06:26;14.00;99.90
7163;DHT22;3623;47.098;15.446;2023-08-12T02:08:53;14.00;99.90
7163;DHT22;3623;47.098;15.446;2023-08-12T02:11:20;14.00;99.90
7163;DHT22;3623;47.098;15.446;2023-08-12T02:13:49;14.00;99.90
7163;DHT22;3623;47.098;15.446;2023-08-12T02:16:16;14.00;99.90
7163;DHT22;3623;47.098;15.446;2023-08-12T02:18:43;14.10;99.90
7163;DHT22;3623;47.098;15.446;2023-08-12T02:21:10;14.10;99.90
7163;DHT22;3623;47.098;15.446;2023-08-12T02:23:37;14.20;99.90
7163;DHT22;3623;47.098;15.446;2023-08-12T02:26:03;14.20;99.90
7163;DHT22;3623;47.098;15.446;2023-08-12T02:28:30;14.20;99.90
7163;DHT22;3623;47.098;15.446;2023-08-12T02:30:59;14.40;99.90
7163;DHT22;3623;47.098;15.446;2023-08-12T02:33:26;14.20;99.90
7163;DHT22;3623;47.098;15.446;2023-08-12T02:35:53;14.10;99.90
7163;DHT22;3623;47.098;15.446;2023-08-12T02:38:21;14.00;99.90
7163;DHT22;3623;47.098;15.446;2023-08-12T02:40:48;13.90;99.90
7163;DHT22;3623;47.098;15.446;2023-08-12T02:43:16;13.80;99.90
7163;DHT22;3623;47.098;15.446;2023-08-12T02:45:44;13.80;99.90
7163;DHT22;3623;47.098;15.446;2023-08-12T02:48:12;13.80;99.90
7163;DHT22;3623;47.098;15.446;2023-08-12T02:50:39;13.80;99.90
7163;DHT22;3623;47.098;15.446;2023-08-12T02:53:07;13.80;99.90
7163;DHT22;3623;47.098;15.446;2023-08-12T02:55:34;13.70;99.90
7163;DHT22;3623;47.098;15.446;2023-08-12T02:58:03;13.80;99.90
7163;DHT22;3623;47.098;15.446;2023-08-12T03:00:30;13.70;99.90
7163;DHT22;3623;47.098;15.446;2023-08-12T03:02:57;13.70;99.90
7163;DHT22;3623;47.098;15.446;2023-08-12T03:05:26;13.80;99.90
7163;DHT22;3623;47.098;15.446;2023-08-12T03:07:53;13.80;99.90
7163;DHT22;3623;47.098;15.446;2023-08-12T03:10:20;13.70;99.90
7163;DHT22;3623;47.098;15.446;2023-08-12T03:12:47;13.70;99.90
7163;DHT22;3623;47.098;15.446;2023-08-12T03:15:14;13.80;99.90
7163;DHT22;3623;47.098;15.446;2023-08-12T03:17:41;13.70;99.90
7163;DHT22;3623;47.098;15.446;2023-08-12T03:20:08;13.60;99.90
7163;DHT22;3623;47.098;15.446;2023-08-12T03:22:37;13.70;99.90
7163;DHT22;3623;47.098;15.446;2023-08-12T03:25:05;13.80;99.90
7163;DHT22;3623;47.098;15.446;2023-08-12T03:27:32;13.80;99.90
7163;DHT22;3623;47.098;15.446;2023-08-12T03:29:59;13.60;99.90
7163;DHT22;3623;47.098;15.446;2023-08-12T03:32:26;13.60;99.90
7163;DHT22;3623;47.098;15.446;2023-08-12T03:34:53;13.60;99.90
7163;DHT22;3623;47.098;15.446;2023-08-12T03:37:20;13.50;99.90
7163;DHT22;3623;47.098;15.446;2023-08-12T03:39:49;13.50;99.90
7163;DHT22;3623;47.098;15.446;2023-08-12T03:42:16;13.50;99.90
7163;DHT22;3623;47.098;15.446;2023-08-12T03:44:43;13.50;99.90
7163;DHT22;3623;47.098;15.446;2023-08-12T03:47:10;13.50;99.90
7163;DHT22;3623;47.098;15.446;2023-08-12T03:49:37;13.50;99.90
7163;DHT22;3623;47.098;15.446;2023-08-12T03:52:05;13.60;99.90
7163;DHT22;3623;47.098;15.446;2023-08-12T03:54:33;13.60;99.90
7163;DHT22;3623;47.098;15.446;2023-08-12T03:57:01;13.50;99.90
7163;DHT22;3623;47.098;15.446;2023-08-12T03:59:28;13.60;99.90
7163;DHT22;3623;47.098;15.446;2023-08-12T04:01:55;13.50;99.90
7163;DHT22;3623;47.098;15.446;2023-08-12T04:04:23;13.50;99.90
7163;DHT22;3623;47.098;15.446;2023-08-12T04:06:49;13.50;99.90
7163;DHT22;3623;47.098;15.446;2023-08-12T04:09:18;13.50;99.90
7163;DHT22;3623;47.098;15.446;2023-08-12T04:11:45;13.50;99.90
7163;DHT22;3623;47.098;15.446;2023-08-12T04:14:14;13.50;99.90
7163;DHT22;3623;47.098;15.446;2023-08-12T04:16:41;13.50;99.90
7163;DHT22;3623;47.098;15.446;2023-08-12T04:19:08;13.50;99.90
7163;DHT22;3623;47.098;15.446;2023-08-12T04:21:35;13.50;99.90
7163;DHT22;3623;47.098;15.446;2023-08-12T04:24:02;13.60;99.90
7163;DHT22;3623;47.098;15.446;2023-08-12T04:26:29;13.60;99.90
7163;DHT22;3623;47.098;15.446;2023-08-12T04:28:56;13.50;99.90
7163;DHT22;3623;47.098;15.446;2023-08-12T04:31:24;13.50;99.90
7163;DHT22;3623;47.098;15.446;2023-08-12T04:33:51;13.50;99.90
7163;DHT22;3623;47.098;15.446;2023-08-12T04:36:19;13.60;99.90
7163;DHT22;3623;47.098;15.446;2023-08-12T04:38:46;13.50;99.90
7163;DHT22;3623;47.098;15.446;2023-08-12T04:41:13;13.70;99.90
7163;DHT22;3623;47.098;15.446;2023-08-12T04:43:40;13.60;99.90
7163;DHT22;3623;47.098;15.446;2023-08-12T04:46:07;13.60;99.90
7163;DHT22;3623;47.098;15.446;2023-08-12T04:48:36;13.60;99.90
7163;DHT22;3623;47.098;15.446;2023-08-12T04:51:03;13.90;99.90
7163;DHT22;3623;47.098;15.446;2023-08-12T04:53:30;13.70;99.90
7163;DHT22;3623;47.098;15.446;2023-08-12T04:55:57;13.70;99.90
7163;DHT22;3623;47.098;15.446;2023-08-12T04:58:24;13.80;99.90
7163;DHT22;3623;47.098;15.446;2023-08-12T05:00:52;13.80;99.90
7163;DHT22;3623;47.098;15.446;2023-08-12T05:03:19;13.90;99.90
7163;DHT22;3623;47.098;15.446;2023-08-12T05:05:50;14.00;99.90
7163;DHT22;3623;47.098;15.446;2023-08-12T05:08:17;14.00;99.90
7163;DHT22;3623;47.098;15.446;2023-08-12T05:10:46;14.10;99.90
7163;DHT22;3623;47.098;15.446;2023-08-12T05:13:14;14.10;99.90
7163;DHT22;3623;47.098;15.446;2023-08-12T05:15:41;14.20;99.90
7163;DHT22;3623;47.098;15.446;2023-08-12T05:18:08;14.30;99.90
7163;DHT22;3623;47.098;15.446;2023-08-12T05:20:35;14.30;99.90
7163;DHT22;3623;47.098;15.446;2023-08-12T05:23:03;14.30;99.90
7163;DHT22;3623;47.098;15.446;2023-08-12T05:25:30;14.10;99.90
7163;DHT22;3623;47.098;15.446;2023-08-12T05:27:57;14.40;99.90
7163;DHT22;3623;47.098;15.446;2023-08-12T05:30:24;14.40;99.90
7163;DHT22;3623;47.098;15.446;2023-08-12T05:32:51;14.40;99.90
7163;DHT22;3623;47.098;15.446;2023-08-12T05:35:18;14.50;99.90
7163;DHT22;3623;47.098;15.446;2023-08-12T05:37:45;14.60;99.90
7163;DHT22;3623;47.098;15.446;2023-08-12T05:40:14;14.70;99.90
7163;DHT22;3623;47.098;15.446;2023-08-12T05:42:41;14.80;99.90
7163;DHT22;3623;47.098;15.446;2023-08-12T05:45:08;14.80;99.90
7163;DHT22;3623;47.098;15.446;2023-08-12T05:47:36;14.80;99.90
7163;DHT22;3623;47.098;15.446;2023-08-12T05:50:04;14.80;99.90
7163;DHT22;3623;47.098;15.446;2023-08-12T05:52:32;14.90;99.90
7163;DHT22;3623;47.098;15.446;2023-08-12T05:54:59;14.90;99.90
7163;DHT22;3623;47.098;15.446;2023-08-12T05:57:27;15.00;99.90
7163;DHT22;3623;47.098;15.446;2023-08-12T05:59:55;15.10;99.90
7163;DHT22;3623;47.098;15.446;2023-08-12T06:02:22;15.10;99.90
7163;DHT22;3623;47.098;15.446;2023-08-12T06:04:49;15.30;99.90
7163;DHT22;3623;47.098;15.446;2023-08-12T06:07:16;15.20;99.90
7163;DHT22;3623;47.098;15.446;2023-08-12T06:09:44;15.30;99.90
7163;DHT22;3623;47.098;15.446;2023-08-12T06:12:11;15.40;99.90
7163;DHT22;3623;47.098;15.446;2023-08-12T06:14:39;15.50;99.90
7163;DHT22;3623;47.098;15.446;2023-08-12T06:17:06;15.60;99.90
7163;DHT22;3623;47.098;15.446;2023-08-12T06:19:33;15.70;99.90
7163;DHT22;3623;47.098;15.446;2023-08-12T06:22:00;15.80;99.90
7163;DHT22;3623;47.098;15.446;2023-08-12T06:24:28;15.80;99.90
7163;DHT22;3623;47.098;15.446;2023-08-12T06:26:55;16.00;99.90
7163;DHT22;3623;47.098;15.446;2023-08-12T06:29:22;16.00;99.90
7163;DHT22;3623;47.098;15.446;2023-08-12T06:31:52;16.10;99.90
7163;DHT22;3623;47.098;15.446;2023-08-12T06:34:19;16.20;99.90
7163;DHT22;3623;47.098;15.446;2023-08-12T06:36:46;16.20;99.90
7163;DHT22;3623;47.098;15.446;2023-08-12T06:39:13;16.30;99.90
7163;DHT22;3623;47.098;15.446;2023-08-12T06:41:40;16.30;99.90
7163;DHT22;3623;47.098;15.446;2023-08-12T06:44:07;16.30;99.90
7163;DHT22;3623;47.098;15.446;2023-08-12T06:46:34;16.40;99.90
7163;DHT22;3623;47.098;15.446;2023-08-12T06:49:03;16.50;99.90
7163;DHT22;3623;47.098;15.446;2023-08-12T06:51:30;16.60;99.90
7163;DHT22;3623;47.098;15.446;2023-08-12T06:53:57;16.70;99.90
7163;DHT22;3623;47.098;15.446;2023-08-12T06:56:24;16.70;99.90
7163;DHT22;3623;47.098;15.446;2023-08-12T06:58:51;16.80;99.90
7163;DHT22;3623;47.098;15.446;2023-08-12T07:01:18;16.90;99.90
7163;DHT22;3623;47.098;15.446;2023-08-12T07:03:45;17.00;99.90
7163;DHT22;3623;47.098;15.446;2023-08-12T07:06:14;17.10;99.90
7163;DHT22;3623;47.098;15.446;2023-08-12T07:08:41;17.20;99.90
7163;DHT22;3623;47.098;15.446;2023-08-12T07:11:08;17.30;99.90
7163;DHT22;3623;47.098;15.446;2023-08-12T07:13:35;17.50;99.90
7163;DHT22;3623;47.098;15.446;2023-08-12T07:16:02;17.60;99.90
7163;DHT22;3623;47.098;15.446;2023-08-12T07:18:30;17.70;99.90
7163;DHT22;3623;47.098;15.446;2023-08-12T07:20:57;17.80;99.90
7163;DHT22;3623;47.098;15.446;2023-08-12T07:23:26;18.10;99.90
7163;DHT22;3623;47.098;15.446;2023-08-12T07:25:53;18.80;99.90
7163;DHT22;3623;47.098;15.446;2023-08-12T07:28:21;19.40;99.90
7163;DHT22;3623;47.098;15.446;2023-08-12T07:30:48;19.50;99.90
7163;DHT22;3623;47.098;15.446;2023-08-12T07:33:15;19.50;99.90
7163;DHT22;3623;47.098;15.446;2023-08-12T07:35:42;19.40;99.90
7163;DHT22;3623;47.098;15.446;2023-08-12T07:38:09;19.30;99.90
7163;DHT22;3623;47.098;15.446;2023-08-12T07:40:38;19.50;99.90
7163;DHT22;3623;47.098;15.446;2023-08-12T07:43:05;19.40;99.90
7163;DHT22;3623;47.098;15.446;2023-08-12T07:45:32;19.40;99.90
7163;DHT22;3623;47.098;15.446;2023-08-12T07:47:59;19.50;99.90
7163;DHT22;3623;47.098;15.446;2023-08-12T07:50:26;19.50;99.90
7163;DHT22;3623;47.098;15.446;2023-08-12T07:52:53;19.80;99.90
7163;DHT22;3623;47.098;15.446;2023-08-12T07:55:20;19.70;99.90
7163;DHT22;3623;47.098;15.446;2023-08-12T07:57:48;19.80;99.90
7163;DHT22;3623;47.098;15.446;2023-08-12T08:00:16;20.00;99.90
7163;DHT22;3623;47.098;15.446;2023-08-12T08:02:43;20.00;99.90
7163;DHT22;3623;47.098;15.446;2023-08-12T08:05:10;20.20;99.90
7163;DHT22;3623;47.098;15.446;2023-08-12T08:07:37;20.30;99.90
7163;DHT22;3623;47.098;15.446;2023-08-12T08:10:04;20.40;99.90
7163;DHT22;3623;47.098;15.446;2023-08-12T08:12:32;20.40;99.90
7163;DHT22;3623;47.098;15.446;2023-08-12T08:15:00;20.40;99.90
7163;DHT22;3623;47.098;15.446;2023-08-12T08:17:29;20.40;99.90
7163;DHT22;3623;47.098;15.446;2023-08-12T08:19:56;20.40;99.90
7163;DHT22;3623;47.098;15.446;2023-08-12T08:22:23;20.50;99.90
7163;DHT22;3623;47.098;15.446;2023-08-12T08:24:50;20.70;99.90
7163;DHT22;3623;47.098;15.446;2023-08-12T08:27:17;20.70;99.90
7163;DHT22;3623;47.098;15.446;2023-08-12T08:29:44;20.80;99.90
7163;DHT22;3623;47.098;15.446;2023-08-12T08:32:12;20.90;99.90
7163;DHT22;3623;47.098;15.446;2023-08-12T08:34:39;20.90;99.90
7163;DHT22;3623;47.098;15.446;2023-08-12T08:37:06;21.00;99.90
7163;DHT22;3623;47.098;15.446;2023-08-12T08:39:33;21.10;99.90
7163;DHT22;3623;47.098;15.446;2023-08-12T08:42:00;21.30;99.90
7163;DHT22;3623;47.098;15.446;2023-08-12T08:44:29;21.40;99.90
7163;DHT22;3623;47.098;15.446;2023-08-12T08:46:58;21.50;99.90
7163;DHT22;3623;47.098;15.446;2023-08-12T08:49:28;21.60;99.90
7163;DHT22;3623;47.098;15.446;2023-08-12T08:51:58;21.70;99.90
7163;DHT22;3623;47.098;15.446;2023-08-12T08:54:26;21.60;99.90
7163;DHT22;3623;47.098;15.446;2023-08-12T08:56:53;21.70;99.90
7163;DHT22;3623;47.098;15.446;2023-08-12T08:59:21;21.80;99.90
7163;DHT22;3623;47.098;15.446;2023-08-12T09:01:49;21.80;99.90
7163;DHT22;3623;47.098;15.446;2023-08-12T09:04:18;22.00;99.90
7163;DHT22;3623;47.098;15.446;2023-08-12T09:06:49;22.20;99.90
7163;DHT22;3623;47.098;15.446;2023-08-12T09:09:19;22.10;99.90
7163;DHT22;3623;47.098;15.446;2023-08-12T09:11:47;22.20;99.90
7163;DHT22;3623;47.098;15.446;2023-08-12T09:14:15;22.10;99.90
7163;DHT22;3623;47.098;15.446;2023-08-12T09:16:42;22.20;99.90
7163;DHT22;3623;47.098;15.446;2023-08-12T09:19:09;22.30;99.90
7163;DHT22;3623;47.098;15.446;2023-08-12T09:21:36;22.40;99.90
7163;DHT22;3623;47.098;15.446;2023-08-12T09:24:07;22.50;99.90
7163;DHT22;3623;47.098;15.446;2023-08-12T09:26:35;22.50;99.90
7163;DHT22;3623;47.098;15.446;2023-08-12T09:29:02;22.70;99.90
7163;DHT22;3623;47.098;15.446;2023-08-12T09:31:30;22.70;99.90
7163;DHT22;3623;47.098;15.446;2023-08-12T09:33:58;22.80;99.90
7163;DHT22;3623;47.098;15.446;2023-08-12T09:36:28;22.80;99.90
7163;DHT22;3623;47.098;15.446;2023-08-12T09:38:56;22.90;99.90
7163;DHT22;3623;47.098;15.446;2023-08-12T09:41:26;22.80;99.90
7163;DHT22;3623;47.098;15.446;2023-08-12T09:43:55;22.90;99.90
7163;DHT22;3623;47.098;15.446;2023-08-12T09:46:23;23.00;99.90
7163;DHT22;3623;47.098;15.446;2023-08-12T09:48:50;23.10;99.90
7163;DHT22;3623;47.098;15.446;2023-08-12T09:51:18;23.10;99.90
7163;DHT22;3623;47.098;15.446;2023-08-12T09:53:47;23.10;99.90
7163;DHT22;3623;47.098;15.446;2023-08-12T09:56:18;23.10;99.90
7163;DHT22;3623;47.098;15.446;2023-08-12T09:58:48;23.20;99.90
7163;DHT22;3623;47.098;15.446;2023-08-12T10:01:18;23.20;99.90
7163;DHT22;3623;47.098;15.446;2023-08-12T10:03:49;23.10;99.90
7163;DHT22;3623;47.098;15.446;2023-08-12T10:06:17;23.10;99.90
7163;DHT22;3623;47.098;15.446;2023-08-12T10:08:46;23.30;99.90
7163;DHT22;3623;47.098;15.446;2023-08-12T10:11:14;23.40;99.90
7163;DHT22;3623;47.098;15.446;2023-08-12T10:13:41;23.60;99.90
7163;DHT22;3623;47.098;15.446;2023-08-12T10:16:11;23.70;99.90
7163;DHT22;3623;47.098;15.446;2023-08-12T10:18:39;23.70;99.90
7163;DHT22;3623;47.098;15.446;2023-08-12T10:21:09;23.70;99.90
7163;DHT22;3623;47.098;15.446;2023-08-12T10:23:36;23.70;99.90
7163;DHT22;3623;47.098;15.446;2023-08-12T10:26:05;23.90;99.90
7163;DHT22;3623;47.098;15.446;2023-08-12T10:28:33;24.30;99.90
7163;DHT22;3623;47.098;15.446;2023-08-12T10:31:03;24.50;99.90
7163;DHT22;3623;47.098;15.446;2023-08-12T10:33:35;25.10;99.90
7163;DHT22;3623;47.098;15.446;2023-08-12T10:36:03;25.90;99.90
7163;DHT22;3623;47.098;15.446;2023-08-12T10:38:32;26.90;99.90
7163;DHT22;3623;47.098;15.446;2023-08-12T10:41:19;27.90;99.90
7163;DHT22;3623;47.098;15.446;2023-08-12T10:43:52;28.50;99.90
7163;DHT22;3623;47.098;15.446;2023-08-12T10:46:27;29.40;99.90
7163;DHT22;3623;47.098;15.446;2023-08-12T10:49:02;30.00;99.90
7163;DHT22;3623;47.098;15.446;2023-08-12T10:51:45;30.70;99.90
7163;DHT22;3623;47.098;15.446;2023-08-12T10:54:22;31.50;99.90
7163;DHT22;3623;47.098;15.446;2023-08-12T10:57:08;31.10;99.90
7163;DHT22;3623;47.098;15.446;2023-08-12T10:59:54;31.40;99.90
7163;DHT22;3623;47.098;15.446;2023-08-12T11:02:25;30.90;99.90
7163;DHT22;3623;47.098;15.446;2023-08-12T11:04:55;31.30;99.90
7163;DHT22;3623;47.098;15.446;2023-08-12T11:07:29;31.20;99.90
7163;DHT22;3623;47.098;15.446;2023-08-12T11:10:01;30.90;99.90
7163;DHT22;3623;47.098;15.446;2023-08-12T11:12:31;31.50;99.90
7163;DHT22;3623;47.098;15.446;2023-08-12T11:15:00;31.80;99.90
7163;DHT22;3623;47.098;15.446;2023-08-12T11:17:34;32.60;99.90
7163;DHT22;3623;47.098;15.446;2023-08-12T11:20:05;33.20;99.90
7163;DHT22;3623;47.098;15.446;2023-08-12T11:22:35;33.70;99.90
7163;DHT22;3623;47.098;15.446;2023-08-12T11:25:03;33.90;99.90
7163;DHT22;3623;47.098;15.446;2023-08-12T11:27:41;34.00;99.90
7163;DHT22;3623;47.098;15.446;2023-08-12T11:30:10;33.80;99.80
7163;DHT22;3623;47.098;15.446;2023-08-12T11:32:37;33.10;99.90
7163;DHT22;3623;47.098;15.446;2023-08-12T11:35:08;32.70;99.90
7163;DHT22;3623;47.098;15.446;2023-08-12T11:37:37;33.00;99.70
7163;DHT22;3623;47.098;15.446;2023-08-12T11:40:06;32.30;99.90
7163;DHT22;3623;47.098;15.446;2023-08-12T11:42:34;33.10;99.70
7163;DHT22;3623;47.098;15.446;2023-08-12T11:45:01;33.10;99.00
7163;DHT22;3623;47.098;15.446;2023-08-12T11:47:28;33.90;99.10
7163;DHT22;3623;47.098;15.446;2023-08-12T11:49:55;34.30;96.80
7163;DHT22;3623;47.098;15.446;2023-08-12T11:52:24;34.30;97.50
7163;DHT22;3623;47.098;15.446;2023-08-12T11:54:53;33.50;98.70
7163;DHT22;3623;47.098;15.446;2023-08-12T11:57:22;33.90;97.40
7163;DHT22;3623;47.098;15.446;2023-08-12T11:59:49;34.60;98.70
7163;DHT22;3623;47.098;15.446;2023-08-12T12:02:16;35.00;96.70
7163;DHT22;3623;47.098;15.446;2023-08-12T12:04:43;34.40;98.00
7163;DHT22;3623;47.098;15.446;2023-08-12T12:07:17;33.80;96.80
7163;DHT22;3623;47.098;15.446;2023-08-12T12:09:46;34.00;98.50
7163;DHT22;3623;47.098;15.446;2023-08-12T12:12:13;34.30;97.30
7163;DHT22;3623;47.098;15.446;2023-08-12T12:14:40;35.00;96.80
7163;DHT22;3623;47.098;15.446;2023-08-12T12:17:08;35.40;95.80
7163;DHT22;3623;47.098;15.446;2023-08-12T12:19:36;35.20;94.90
7163;DHT22;3623;47.098;15.446;2023-08-12T12:22:07;35.80;94.30
7163;DHT22;3623;47.098;15.446;2023-08-12T12:24:45;36.30;95.10
7163;DHT22;3623;47.098;15.446;2023-08-12T12:27:13;35.80;95.80
7163;DHT22;3623;47.098;15.446;2023-08-12T12:29:41;36.70;94.30
7163;DHT22;3623;47.098;15.446;2023-08-12T12:32:07;37.30;94.20
7163;DHT22;3623;47.098;15.446;2023-08-12T12:34:35;37.50;94.20
7163;DHT22;3623;47.098;15.446;2023-08-12T12:37:02;37.80;92.40
7163;DHT22;3623;47.098;15.446;2023-08-12T12:39:29;37.70;92.00
7163;DHT22;3623;47.098;15.446;2023-08-12T12:41:58;37.30;92.50
7163;DHT22;3623;47.098;15.446;2023-08-12T12:44:26;37.80;91.00
7163;DHT22;3623;47.098;15.446;2023-08-12T12:46:53;37.20;90.90
7163;DHT22;3623;47.098;15.446;2023-08-12T12:49:20;36.40;92.20
7163;DHT22;3623;47.098;15.446;2023-08-12T12:51:48;36.20;91.00
7163;DHT22;3623;47.098;15.446;2023-08-12T12:54:16;35.50;92.70
7163;DHT22;3623;47.098;15.446;2023-08-12T12:56:43;36.30;93.30
7163;DHT22;3623;47.098;15.446;2023-08-12T12:59:12;36.50;91.00
7163;DHT22;3623;47.098;15.446;2023-08-12T13:01:40;36.70;92.90
7163;DHT22;3623;47.098;15.446;2023-08-12T13:04:07;37.60;91.90
7163;DHT22;3623;47.098;15.446;2023-08-12T13:06:35;37.00;90.00
7163;DHT22;3623;47.098;15.446;2023-08-12T13:09:02;36.60;92.00
7163;DHT22;3623;47.098;15.446;2023-08-12T13:11:32;36.50;92.10
7163;DHT22;3623;47.098;15.446;2023-08-12T13:13:59;36.20;92.50
7163;DHT22;3623;47.098;15.446;2023-08-12T13:16:28;36.90;91.80
7163;DHT22;3623;47.098;15.446;2023-08-12T13:18:55;36.70;91.50
7163;DHT22;3623;47.098;15.446;2023-08-12T13:21:24;37.50;89.80
7163;DHT22;3623;47.098;15.446;2023-08-12T13:23:51;36.70;90.00
7163;DHT22;3623;47.098;15.446;2023-08-12T13:26:18;36.70;91.00
7163;DHT22;3623;47.098;15.446;2023-08-12T13:28:45;37.20;90.70
7163;DHT22;3623;47.098;15.446;2023-08-12T13:31:12;36.90;89.50
7163;DHT22;3623;47.098;15.446;2023-08-12T13:33:41;35.90;90.40
7163;DHT22;3623;47.098;15.446;2023-08-12T13:36:08;35.70;90.70
7163;DHT22;3623;47.098;15.446;2023-08-12T13:38:35;35.80;91.50
7163;DHT22;3623;47.098;15.446;2023-08-12T13:41:02;36.90;90.30
7163;DHT22;3623;47.098;15.446;2023-08-12T13:43:29;37.10;90.20
7163;DHT22;3623;47.098;15.446;2023-08-12T13:45:57;36.00;91.50
7163;DHT22;3623;47.098;15.446;2023-08-12T13:48:24;35.70;92.30
7163;DHT22;3623;47.098;15.446;2023-08-12T13:50:52;35.50;92.50
7163;DHT22;3623;47.098;15.446;2023-08-12T13:53:20;35.90;93.10
7163;DHT22;3623;47.098;15.446;2023-08-12T13:55:49;36.10;91.10
7163;DHT22;3623;47.098;15.446;2023-08-12T13:58:16;35.80;92.50
7163;DHT22;3623;47.098;15.446;2023-08-12T14:00:43;35.90;92.40
7163;DHT22;3623;47.098;15.446;2023-08-12T14:03:10;35.90;92.10
7163;DHT22;3623;47.098;15.446;2023-08-12T14:05:37;35.20;92.20
7163;DHT22;3623;47.098;15.446;2023-08-12T14:08:06;35.10;93.40
7163;DHT22;3623;47.098;15.446;2023-08-12T14:10:33;35.30;92.30
7163;DHT22;3623;47.098;15.446;2023-08-12T14:13:00;35.40;91.60
7163;DHT22;3623;47.098;15.446;2023-08-12T14:15:27;35.30;92.00
7163;DHT22;3623;47.098;15.446;2023-08-12T14:17:54;35.30;92.70
7163;DHT22;3623;47.098;15.446;2023-08-12T14:20:21;35.40;92.30
7163;DHT22;3623;47.098;15.446;2023-08-12T14:22:48;35.30;91.30
7163;DHT22;3623;47.098;15.446;2023-08-12T14:25:17;35.00;91.50
7163;DHT22;3623;47.098;15.446;2023-08-12T14:27:44;35.30;91.50
7163;DHT22;3623;47.098;15.446;2023-08-12T14:30:12;35.10;92.00
7163;DHT22;3623;47.098;15.446;2023-08-12T14:32:39;34.70;91.20
7163;DHT22;3623;47.098;15.446;2023-08-12T14:35:07;34.80;92.30
7163;DHT22;3623;47.098;15.446;2023-08-12T14:37:34;34.20;92.30
7163;DHT22;3623;47.098;15.446;2023-08-12T14:40:01;33.70;92.50
7163;DHT22;3623;47.098;15.446;2023-08-12T14:42:30;33.70;92.10
7163;DHT22;3623;47.098;15.446;2023-08-12T14:44:57;33.80;92.90
7163;DHT22;3623;47.098;15.446;2023-08-12T14:47:24;33.80;93.50
7163;DHT22;3623;47.098;15.446;2023-08-12T14:49:51;33.60;93.00
7163;DHT22;3623;47.098;15.446;2023-08-12T14:52:19;33.40;94.00
7163;DHT22;3623;47.098;15.446;2023-08-12T14:54:47;33.50;90.80
7163;DHT22;3623;47.098;15.446;2023-08-12T14:57:14;33.00;92.30
7163;DHT22;3623;47.098;15.446;2023-08-12T14:59:42;32.60;93.30
7163;DHT22;3623;47.098;15.446;2023-08-12T15:02:09;32.20;93.20
7163;DHT22;3623;47.098;15.446;2023-08-12T15:04:36;32.00;93.60
7163;DHT22;3623;47.098;15.446;2023-08-12T15:07:03;31.90;94.20
7163;DHT22;3623;47.098;15.446;2023-08-12T15:09:31;31.90;94.20
7163;DHT22;3623;47.098;15.446;2023-08-12T15:11:58;31.80;94.90
7163;DHT22;3623;47.098;15.446;2023-08-12T15:14:25;31.10;94.40
7163;DHT22;3623;47.098;15.446;2023-08-12T15:16:53;30.80;95.30
7163;DHT22;3623;47.098;15.446;2023-08-12T15:19:20;30.60;95.50
7163;DHT22;3623;47.098;15.446;2023-08-12T15:21:47;30.30;96.40
7163;DHT22;3623;47.098;15.446;2023-08-12T15:24:16;30.20;96.00
7163;DHT22;3623;47.098;15.446;2023-08-12T15:26:43;30.00;96.70
7163;DHT22;3623;47.098;15.446;2023-08-12T15:29:10;29.60;95.40
7163;DHT22;3623;47.098;15.446;2023-08-12T15:31:37;29.40;95.10
7163;DHT22;3623;47.098;15.446;2023-08-12T15:34:06;29.60;96.10
7163;DHT22;3623;47.098;15.446;2023-08-12T15:36:33;29.50;96.50
7163;DHT22;3623;47.098;15.446;2023-08-12T15:39:01;29.50;97.20
7163;DHT22;3623;47.098;15.446;2023-08-12T15:41:28;29.10;96.50
7163;DHT22;3623;47.098;15.446;2023-08-12T15:43:55;28.80;96.70
7163;DHT22;3623;47.098;15.446;2023-08-12T15:46:22;28.80;97.00
7163;DHT22;3623;47.098;15.446;2023-08-12T15:48:49;28.70;97.00